sensor_id;sensor_type;location;lat;lon;timestamp;P1;durP1;ratioP1;P2;durP2;ratioP2
46417;SDS011;69884;64.758;20.962;2023-07-29T00:00:09;6.05;;;4.97;;
46417;SDS011;69884;64.758;20.962;2023-07-29T00:02:34;6.18;;;4.38;;
46417;SDS011;69884;64.758;20.962;2023-07-29T00:05:20;5.20;;;4.70;;
46417;SDS011;69884;64.758;20.962;2023-07-29T00:13:40;5.10;;;4.60;;
46417;SDS011;69884;64.758;20.962;2023-07-29T00:16:17;5.35;;;4.85;;
46417;SDS011;69884;64.758;20.962;2023-07-29T00:18:54;6.93;;;4.25;;
46417;SDS011;69884;64.758;20.962;2023-07-29T00:21:33;5.15;;;4.22;;
46417;SDS011;69884;64.758;20.962;2023-07-29T00:24:03;5.57;;;4.30;;
46417;SDS011;69884;64.758;20.962;2023-07-29T00:31:56;7.47;;;4.47;;
46417;SDS011;69884;64.758;20.962;2023-07-29T00:34:50;6.07;;;4.70;;
46417;SDS011;69884;64.758;20.962;2023-07-29T00:40:35;7.05;;;5.80;;
46417;SDS011;69884;64.758;20.962;2023-07-29T00:43:06;6.20;;;4.73;;
46417;SDS011;69884;64.758;20.962;2023-07-29T00:48:35;4.80;;;4.38;;
46417;SDS011;69884;64.758;20.962;2023-07-29T00:51:08;5.03;;;4.32;;
46417;SDS011;69884;64.758;20.962;2023-07-29T00:53:36;6.75;;;4.38;;
46417;SDS011;69884;64.758;20.962;2023-07-29T00:56:20;5.93;;;4.77;;
46417;SDS011;69884;64.758;20.962;2023-07-29T00:58:50;5.72;;;4.50;;
46417;SDS011;69884;64.758;20.962;2023-07-29T01:01:26;5.20;;;4.70;;
46417;SDS011;69884;64.758;20.962;2023-07-29T01:04:12;4.93;;;4.43;;
46417;SDS011;69884;64.758;20.962;2023-07-29T01:10:07;4.85;;;4.20;;
46417;SDS011;69884;64.758;20.962;2023-07-29T01:12:41;5.97;;;3.90;;
46417;SDS011;69884;64.758;20.962;2023-07-29T01:15:16;5.13;;;4.30;;
46417;SDS011;69884;64.758;20.962;2023-07-29T01:18:01;6.00;;;4.43;;
46417;SDS011;69884;64.758;20.962;2023-07-29T01:20:38;5.18;;;4.32;;
46417;SDS011;69884;64.758;20.962;2023-07-29T01:23:09;4.28;;;3.60;;
46417;SDS011;69884;64.758;20.962;2023-07-29T01:26:09;4.18;;;3.78;;
46417;SDS011;69884;64.758;20.962;2023-07-29T01:28:57;6.22;;;4.00;;
46417;SDS011;69884;64.758;20.962;2023-07-29T01:37:30;4.72;;;4.25;;
46417;SDS011;69884;64.758;20.962;2023-07-29T01:40:06;4.38;;;3.92;;
46417;SDS011;69884;64.758;20.962;2023-07-29T01:42:38;4.70;;;4.20;;
46417;SDS011;69884;64.758;20.962;2023-07-29T01:45:13;4.05;;;3.53;;
46417;SDS011;69884;64.758;20.962;2023-07-29T01:51:01;4.70;;;4.10;;
46417;SDS011;69884;64.758;20.962;2023-07-29T01:53:37;6.05;;;4.63;;
46417;SDS011;69884;64.758;20.962;2023-07-29T01:56:05;5.68;;;4.22;;
46417;SDS011;69884;64.758;20.962;2023-07-29T01:58:40;4.97;;;4.10;;
46417;SDS011;69884;64.758;20.962;2023-07-29T02:01:17;4.93;;;4.32;;
46417;SDS011;69884;64.758;20.962;2023-07-29T02:03:48;4.50;;;4.10;;
46417;SDS011;69884;64.758;20.962;2023-07-29T02:06:30;5.80;;;4.63;;
46417;SDS011;69884;64.758;20.962;2023-07-29T02:09:01;4.97;;;4.47;;
46417;SDS011;69884;64.758;20.962;2023-07-29T02:11:29;6.47;;;4.23;;
46417;SDS011;69884;64.758;20.962;2023-07-29T02:14:05;4.78;;;4.38;;
46417;SDS011;69884;64.758;20.962;2023-07-29T02:16:36;5.07;;;4.57;;
46417;SDS011;69884;64.758;20.962;2023-07-29T02:19:04;4.85;;;4.45;;
46417;SDS011;69884;64.758;20.962;2023-07-29T02:21:45;6.28;;;5.07;;
46417;SDS011;69884;64.758;20.962;2023-07-29T02:24:22;6.30;;;5.30;;
46417;SDS011;69884;64.758;20.962;2023-07-29T02:26:49;6.63;;;5.00;;
46417;SDS011;69884;64.758;20.962;2023-07-29T02:29:18;5.90;;;5.30;;
46417;SDS011;69884;64.758;20.962;2023-07-29T02:32:03;5.32;;;4.45;;
46417;SDS011;69884;64.758;20.962;2023-07-29T02:34:37;5.47;;;4.43;;
46417;SDS011;69884;64.758;20.962;2023-07-29T02:37:18;5.90;;;4.75;;
46417;SDS011;69884;64.758;20.962;2023-07-29T02:39:55;5.80;;;5.22;;
46417;SDS011;69884;64.758;20.962;2023-07-29T02:42:30;6.05;;;5.45;;
46417;SDS011;69884;64.758;20.962;2023-07-29T02:45:13;7.30;;;6.20;;
46417;SDS011;69884;64.758;20.962;2023-07-29T02:47:44;7.13;;;5.97;;
46417;SDS011;69884;64.758;20.962;2023-07-29T02:50:21;5.07;;;4.03;;
46417;SDS011;69884;64.758;20.962;2023-07-29T02:53:01;5.95;;;5.35;;
46417;SDS011;69884;64.758;20.962;2023-07-29T02:55:52;6.15;;;5.30;;
46417;SDS011;69884;64.758;20.962;2023-07-29T02:58:17;6.25;;;4.15;;
46417;SDS011;69884;64.758;20.962;2023-07-29T03:03:34;4.22;;;3.80;;
46417;SDS011;69884;64.758;20.962;2023-07-29T03:06:07;4.70;;;3.35;;
46417;SDS011;69884;64.758;20.962;2023-07-29T03:08:44;3.90;;;3.50;;
46417;SDS011;69884;64.758;20.962;2023-07-29T03:39:09;4.63;;;4.03;;
46417;SDS011;69884;64.758;20.962;2023-07-29T03:41:40;5.88;;;4.18;;
46417;SDS011;69884;64.758;20.962;2023-07-29T04:05:42;4.65;;;4.00;;
46417;SDS011;69884;64.758;20.962;2023-07-29T04:08:41;4.75;;;4.25;;
46417;SDS011;69884;64.758;20.962;2023-07-29T04:11:34;4.28;;;3.88;;
46417;SDS011;69884;64.758;20.962;2023-07-29T04:14:01;6.43;;;4.80;;
46417;SDS011;69884;64.758;20.962;2023-07-29T04:26:06;6.30;;;4.30;;
46417;SDS011;69884;64.758;20.962;2023-07-29T04:44:19;4.53;;;4.13;;
46417;SDS011;69884;64.758;20.962;2023-07-29T04:46:50;6.53;;;4.33;;
46417;SDS011;69884;64.758;20.962;2023-07-29T04:59:01;5.00;;;4.10;;
46417;SDS011;69884;64.758;20.962;2023-07-29T05:01:42;4.67;;;4.03;;
46417;SDS011;69884;64.758;20.962;2023-07-29T05:09:45;5.72;;;4.65;;
46417;SDS011;69884;64.758;20.962;2023-07-29T05:37:01;4.47;;;4.07;;
46417;SDS011;69884;64.758;20.962;2023-07-29T05:51:56;4.55;;;4.13;;
46417;SDS011;69884;64.758;20.962;2023-07-29T06:31:16;4.57;;;4.10;;
46417;SDS011;69884;64.758;20.962;2023-07-29T06:40:19;4.32;;;3.95;;
46417;SDS011;69884;64.758;20.962;2023-07-29T06:43:19;4.87;;;4.37;;
46417;SDS011;69884;64.758;20.962;2023-07-29T06:51:40;5.25;;;4.25;;
46417;SDS011;69884;64.758;20.962;2023-07-29T07:03:33;4.28;;;3.80;;
46417;SDS011;69884;64.758;20.962;2023-07-29T07:06:12;4.95;;;3.80;;
46417;SDS011;69884;64.758;20.962;2023-07-29T07:08:43;4.03;;;3.47;;
46417;SDS011;69884;64.758;20.962;2023-07-29T07:17:06;4.05;;;3.40;;
46417;SDS011;69884;64.758;20.962;2023-07-29T07:20:03;5.85;;;3.80;;
46417;SDS011;69884;64.758;20.962;2023-07-29T07:22:50;4.00;;;3.30;;
46417;SDS011;69884;64.758;20.962;2023-07-29T07:25:20;4.60;;;3.55;;
46417;SDS011;69884;64.758;20.962;2023-07-29T07:27:54;3.50;;;3.20;;
46417;SDS011;69884;64.758;20.962;2023-07-29T07:30:28;3.17;;;2.83;;
46417;SDS011;69884;64.758;20.962;2023-07-29T07:32:56;4.45;;;3.20;;
46417;SDS011;69884;64.758;20.962;2023-07-29T07:40:57;3.58;;;3.28;;
46417;SDS011;69884;64.758;20.962;2023-07-29T07:43:45;3.38;;;3.08;;
46417;SDS011;69884;64.758;20.962;2023-07-29T07:46:15;3.30;;;3.00;;
46417;SDS011;69884;64.758;20.962;2023-07-29T07:49:01;3.92;;;3.13;;
46417;SDS011;69884;64.758;20.962;2023-07-29T07:51:36;3.30;;;3.00;;
46417;SDS011;69884;64.758;20.962;2023-07-29T07:57:03;3.20;;;2.90;;
46417;SDS011;69884;64.758;20.962;2023-07-29T07:59:47;3.42;;;3.13;;
46417;SDS011;69884;64.758;20.962;2023-07-29T08:05:20;3.65;;;3.05;;
46417;SDS011;69884;64.758;20.962;2023-07-29T08:08:06;3.55;;;3.25;;
46417;SDS011;69884;64.758;20.962;2023-07-29T08:10:39;3.60;;;3.30;;
46417;SDS011;69884;64.758;20.962;2023-07-29T08:13:17;3.90;;;3.37;;
46417;SDS011;69884;64.758;20.962;2023-07-29T08:16:01;3.88;;;3.58;;
46417;SDS011;69884;64.758;20.962;2023-07-29T08:18:29;3.83;;;3.45;;
46417;SDS011;69884;64.758;20.962;2023-07-29T08:21:12;3.75;;;3.45;;
46417;SDS011;69884;64.758;20.962;2023-07-29T08:23:40;3.90;;;3.60;;
46417;SDS011;69884;64.758;20.962;2023-07-29T08:26:09;3.90;;;3.60;;
46417;SDS011;69884;64.758;20.962;2023-07-29T08:28:55;3.80;;;3.42;;
46417;SDS011;69884;64.758;20.962;2023-07-29T08:31:21;4.15;;;3.50;;
46417;SDS011;69884;64.758;20.962;2023-07-29T08:33:52;3.73;;;3.43;;
46417;SDS011;69884;64.758;20.962;2023-07-29T08:36:20;3.53;;;3.22;;
46417;SDS011;69884;64.758;20.962;2023-07-29T08:38:47;3.60;;;3.30;;
46417;SDS011;69884;64.758;20.962;2023-07-29T08:41:26;4.18;;;3.28;;
46417;SDS011;69884;64.758;20.962;2023-07-29T08:44:15;3.60;;;3.30;;
46417;SDS011;69884;64.758;20.962;2023-07-29T08:46:47;3.67;;;3.20;;
46417;SDS011;69884;64.758;20.962;2023-07-29T08:49:15;3.55;;;3.25;;
46417;SDS011;69884;64.758;20.962;2023-07-29T08:51:47;3.30;;;3.00;;
46417;SDS011;69884;64.758;20.962;2023-07-29T08:54:15;3.40;;;3.10;;
46417;SDS011;69884;64.758;20.962;2023-07-29T08:56:43;3.00;;;2.80;;
46417;SDS011;69884;64.758;20.962;2023-07-29T08:59:09;3.87;;;3.03;;
46417;SDS011;69884;64.758;20.962;2023-07-29T09:01:55;3.58;;;2.80;;
46417;SDS011;69884;64.758;20.962;2023-07-29T09:04:22;3.20;;;2.95;;
46417;SDS011;69884;64.758;20.962;2023-07-29T09:07:15;3.63;;;2.92;;
46417;SDS011;69884;64.758;20.962;2023-07-29T09:09:49;4.97;;;2.88;;
46417;SDS011;69884;64.758;20.962;2023-07-29T09:12:28;3.47;;;2.85;;
46417;SDS011;69884;64.758;20.962;2023-07-29T09:15:30;3.20;;;2.90;;
46417;SDS011;69884;64.758;20.962;2023-07-29T09:21:09;2.83;;;2.50;;
46417;SDS011;69884;64.758;20.962;2023-07-29T09:24:21;3.28;;;2.58;;
46417;SDS011;69884;64.758;20.962;2023-07-29T09:30:01;4.13;;;2.80;;
46417;SDS011;69884;64.758;20.962;2023-07-29T09:32:36;2.97;;;2.53;;
46417;SDS011;69884;64.758;20.962;2023-07-29T09:54:19;3.20;;;2.60;;
46417;SDS011;69884;64.758;20.962;2023-07-29T10:00:17;2.90;;;2.30;;
46417;SDS011;69884;64.758;20.962;2023-07-29T10:06:02;2.58;;;2.38;;
46417;SDS011;69884;64.758;20.962;2023-07-29T10:08:36;2.45;;;2.25;;
46417;SDS011;69884;64.758;20.962;2023-07-29T10:11:22;2.67;;;2.47;;
46417;SDS011;69884;64.758;20.962;2023-07-29T10:13:59;2.58;;;2.38;;
46417;SDS011;69884;64.758;20.962;2023-07-29T10:16:41;2.78;;;2.55;;
46417;SDS011;69884;64.758;20.962;2023-07-29T10:25:37;2.67;;;2.20;;
46417;SDS011;69884;64.758;20.962;2023-07-29T10:32:02;2.72;;;2.53;;
46417;SDS011;69884;64.758;20.962;2023-07-29T10:34:45;2.60;;;2.40;;
46417;SDS011;69884;64.758;20.962;2023-07-29T10:37:47;2.58;;;2.38;;
46417;SDS011;69884;64.758;20.962;2023-07-29T10:46:57;2.63;;;2.30;;
46417;SDS011;69884;64.758;20.962;2023-07-29T10:53:09;2.00;;;1.80;;
46417;SDS011;69884;64.758;20.962;2023-07-29T10:55:46;2.63;;;2.03;;
46417;SDS011;69884;64.758;20.962;2023-07-29T10:58:59;2.33;;;2.13;;
46417;SDS011;69884;64.758;20.962;2023-07-29T11:01:29;2.83;;;2.00;;
46417;SDS011;69884;64.758;20.962;2023-07-29T11:10:18;2.58;;;2.15;;
46417;SDS011;69884;64.758;20.962;2023-07-29T11:22:06;2.13;;;1.92;;
46417;SDS011;69884;64.758;20.962;2023-07-29T11:25:01;2.13;;;1.90;;
46417;SDS011;69884;64.758;20.962;2023-07-29T11:40:21;1.40;;;1.30;;
46417;SDS011;69884;64.758;20.962;2023-07-29T12:00:49;1.83;;;1.40;;
46417;SDS011;69884;64.758;20.962;2023-07-29T12:03:15;2.07;;;1.40;;
46417;SDS011;69884;64.758;20.962;2023-07-29T12:05:42;1.60;;;1.40;;
46417;SDS011;69884;64.758;20.962;2023-07-29T12:08:08;2.20;;;1.30;;
46417;SDS011;69884;64.758;20.962;2023-07-29T12:10:56;1.33;;;1.10;;
46417;SDS011;69884;64.758;20.962;2023-07-29T12:13:24;1.73;;;1.33;;
46417;SDS011;69884;64.758;20.962;2023-07-29T12:15:50;1.60;;;1.10;;
46417;SDS011;69884;64.758;20.962;2023-07-29T12:18:18;1.50;;;1.10;;
46417;SDS011;69884;64.758;20.962;2023-07-29T12:20:53;0.97;;;0.97;;
46417;SDS011;69884;64.758;20.962;2023-07-29T12:44:01;3.00;;;1.60;;
46417;SDS011;69884;64.758;20.962;2023-07-29T12:46:44;1.88;;;1.67;;
46417;SDS011;69884;64.758;20.962;2023-07-29T13:01:16;2.00;;;1.80;;
46417;SDS011;69884;64.758;20.962;2023-07-29T13:03:45;2.00;;;1.45;;
46417;SDS011;69884;64.758;20.962;2023-07-29T13:06:13;2.37;;;1.60;;
46417;SDS011;69884;64.758;20.962;2023-07-29T13:08:38;2.50;;;1.80;;
46417;SDS011;69884;64.758;20.962;2023-07-29T13:14:06;1.70;;;1.60;;
46417;SDS011;69884;64.758;20.962;2023-07-29T13:16:31;2.20;;;1.60;;
46417;SDS011;69884;64.758;20.962;2023-07-29T13:18:57;1.70;;;1.50;;
46417;SDS011;69884;64.758;20.962;2023-07-29T13:21:23;2.23;;;1.43;;
46417;SDS011;69884;64.758;20.962;2023-07-29T13:23:48;2.20;;;1.42;;
46417;SDS011;69884;64.758;20.962;2023-07-29T13:26:13;1.98;;;1.50;;
46417;SDS011;69884;64.758;20.962;2023-07-29T13:28:38;1.80;;;1.20;;
46417;SDS011;69884;64.758;20.962;2023-07-29T13:31:04;1.65;;;1.50;;
46417;SDS011;69884;64.758;20.962;2023-07-29T13:33:29;1.30;;;1.13;;
46417;SDS011;69884;64.758;20.962;2023-07-29T13:35:59;1.40;;;1.30;;
46417;SDS011;69884;64.758;20.962;2023-07-29T13:38:26;1.30;;;1.20;;
46417;SDS011;69884;64.758;20.962;2023-07-29T13:41:01;1.25;;;1.10;;
46417;SDS011;69884;64.758;20.962;2023-07-29T13:43:30;1.10;;;1.00;;
46417;SDS011;69884;64.758;20.962;2023-07-29T13:45:55;1.15;;;0.90;;
46417;SDS011;69884;64.758;20.962;2023-07-29T13:48:21;0.95;;;0.90;;
46417;SDS011;69884;64.758;20.962;2023-07-29T13:50:46;1.80;;;0.90;;
46417;SDS011;69884;64.758;20.962;2023-07-29T13:53:11;1.05;;;0.80;;
46417;SDS011;69884;64.758;20.962;2023-07-29T13:55:36;0.90;;;0.90;;
46417;SDS011;69884;64.758;20.962;2023-07-29T13:58:02;1.00;;;0.90;;
46417;SDS011;69884;64.758;20.962;2023-07-29T14:00:27;1.10;;;1.00;;
46417;SDS011;69884;64.758;20.962;2023-07-29T14:02:52;1.60;;;1.00;;
46417;SDS011;69884;64.758;20.962;2023-07-29T14:05:18;0.90;;;0.90;;
46417;SDS011;69884;64.758;20.962;2023-07-29T14:07:43;2.00;;;1.00;;
46417;SDS011;69884;64.758;20.962;2023-07-29T14:10:09;1.90;;;1.00;;
46417;SDS011;69884;64.758;20.962;2023-07-29T14:12:34;1.30;;;1.00;;
46417;SDS011;69884;64.758;20.962;2023-07-29T14:14:59;1.52;;;1.00;;
46417;SDS011;69884;64.758;20.962;2023-07-29T14:17:25;1.30;;;1.00;;
46417;SDS011;69884;64.758;20.962;2023-07-29T14:19:55;1.70;;;1.00;;
46417;SDS011;69884;64.758;20.962;2023-07-29T14:22:39;1.90;;;1.15;;
46417;SDS011;69884;64.758;20.962;2023-07-29T14:25:14;1.25;;;1.00;;
46417;SDS011;69884;64.758;20.962;2023-07-29T14:31:20;1.73;;;1.20;;
46417;SDS011;69884;64.758;20.962;2023-07-29T14:33:58;2.00;;;1.20;;
46417;SDS011;69884;64.758;20.962;2023-07-29T14:36:32;1.77;;;1.10;;
46417;SDS011;69884;64.758;20.962;2023-07-29T14:39:06;1.70;;;1.10;;
46417;SDS011;69884;64.758;20.962;2023-07-29T14:41:44;2.40;;;1.30;;
46417;SDS011;69884;64.758;20.962;2023-07-29T14:44:18;1.48;;;1.30;;
46417;SDS011;69884;64.758;20.962;2023-07-29T14:47:13;1.42;;;1.20;;
46417;SDS011;69884;64.758;20.962;2023-07-29T14:50:22;2.38;;;1.30;;
46417;SDS011;69884;64.758;20.962;2023-07-29T14:53:20;1.58;;;1.45;;
46417;SDS011;69884;64.758;20.962;2023-07-29T14:56:02;1.30;;;1.20;;
46417;SDS011;69884;64.758;20.962;2023-07-29T15:07:59;2.42;;;1.45;;
46417;SDS011;69884;64.758;20.962;2023-07-29T15:10:28;2.10;;;1.60;;
46417;SDS011;69884;64.758;20.962;2023-07-29T15:13:02;1.92;;;1.40;;
46417;SDS011;69884;64.758;20.962;2023-07-29T15:15:28;4.25;;;1.73;;
46417;SDS011;69884;64.758;20.962;2023-07-29T15:17:53;2.87;;;1.43;;
46417;SDS011;69884;64.758;20.962;2023-07-29T15:20:18;2.80;;;1.60;;
46417;SDS011;69884;64.758;20.962;2023-07-29T15:22:44;1.70;;;1.42;;
46417;SDS011;69884;64.758;20.962;2023-07-29T15:25:09;2.35;;;1.58;;
46417;SDS011;69884;64.758;20.962;2023-07-29T15:27:35;2.03;;;1.65;;
46417;SDS011;69884;64.758;20.962;2023-07-29T15:30:00;2.40;;;1.90;;
46417;SDS011;69884;64.758;20.962;2023-07-29T15:32:35;1.90;;;1.50;;
46417;SDS011;69884;64.758;20.962;2023-07-29T15:35:06;2.42;;;1.67;;
46417;SDS011;69884;64.758;20.962;2023-07-29T15:37:34;1.88;;;1.65;;
46417;SDS011;69884;64.758;20.962;2023-07-29T15:40:02;1.70;;;1.60;;
46417;SDS011;69884;64.758;20.962;2023-07-29T15:42:30;1.92;;;1.75;;
46417;SDS011;69884;64.758;20.962;2023-07-29T15:44:55;2.40;;;1.60;;
46417;SDS011;69884;64.758;20.962;2023-07-29T15:47:21;2.97;;;1.90;;
46417;SDS011;69884;64.758;20.962;2023-07-29T15:55:56;2.50;;;1.60;;
46417;SDS011;69884;64.758;20.962;2023-07-29T15:58:30;2.70;;;1.65;;
46417;SDS011;69884;64.758;20.962;2023-07-29T16:01:16;1.70;;;1.60;;
46417;SDS011;69884;64.758;20.962;2023-07-29T16:04:12;2.30;;;1.70;;
46417;SDS011;69884;64.758;20.962;2023-07-29T16:06:40;1.77;;;1.55;;
46417;SDS011;69884;64.758;20.962;2023-07-29T16:12:17;1.87;;;1.70;;
46417;SDS011;69884;64.758;20.962;2023-07-29T16:14:45;2.20;;;1.80;;
46417;SDS011;69884;64.758;20.962;2023-07-29T16:17:20;1.77;;;1.60;;
46417;SDS011;69884;64.758;20.962;2023-07-29T16:19:52;2.70;;;1.67;;
46417;SDS011;69884;64.758;20.962;2023-07-29T16:22:18;1.98;;;1.58;;
46417;SDS011;69884;64.758;20.962;2023-07-29T16:24:44;2.90;;;1.50;;
46417;SDS011;69884;64.758;20.962;2023-07-29T16:27:09;1.50;;;1.40;;
46417;SDS011;69884;64.758;20.962;2023-07-29T16:29:37;1.47;;;1.30;;
46417;SDS011;69884;64.758;20.962;2023-07-29T16:32:15;1.50;;;1.25;;
46417;SDS011;69884;64.758;20.962;2023-07-29T16:34:41;2.13;;;1.30;;
46417;SDS011;69884;64.758;20.962;2023-07-29T16:37:06;1.23;;;1.10;;
46417;SDS011;69884;64.758;20.962;2023-07-29T16:39:32;2.28;;;1.10;;
46417;SDS011;69884;64.758;20.962;2023-07-29T16:41:57;1.40;;;1.30;;
46417;SDS011;69884;64.758;20.962;2023-07-29T16:44:23;4.33;;;1.40;;
46417;SDS011;69884;64.758;20.962;2023-07-29T16:46:48;2.07;;;1.27;;
46417;SDS011;69884;64.758;20.962;2023-07-29T16:49:13;1.67;;;1.00;;
46417;SDS011;69884;64.758;20.962;2023-07-29T16:51:39;1.50;;;1.17;;
46417;SDS011;69884;64.758;20.962;2023-07-29T16:54:07;1.50;;;1.10;;
46417;SDS011;69884;64.758;20.962;2023-07-29T16:56:32;1.60;;;1.30;;
46417;SDS011;69884;64.758;20.962;2023-07-29T16:59:00;1.30;;;1.05;;
46417;SDS011;69884;64.758;20.962;2023-07-29T17:01:26;1.65;;;1.23;;
46417;SDS011;69884;64.758;20.962;2023-07-29T17:03:51;1.20;;;1.10;;
46417;SDS011;69884;64.758;20.962;2023-07-29T17:06:25;1.60;;;1.10;;
46417;SDS011;69884;64.758;20.962;2023-07-29T17:08:51;1.20;;;1.10;;
46417;SDS011;69884;64.758;20.962;2023-07-29T17:11:16;1.60;;;1.30;;
46417;SDS011;69884;64.758;20.962;2023-07-29T17:13:44;1.60;;;1.20;;
46417;SDS011;69884;64.758;20.962;2023-07-29T17:16:10;2.33;;;1.10;;
46417;SDS011;69884;64.758;20.962;2023-07-29T17:18:35;2.50;;;1.30;;
46417;SDS011;69884;64.758;20.962;2023-07-29T17:21:01;1.50;;;1.40;;
46417;SDS011;69884;64.758;20.962;2023-07-29T17:23:27;1.20;;;1.10;;
46417;SDS011;69884;64.758;20.962;2023-07-29T17:25:55;1.27;;;1.17;;
46417;SDS011;69884;64.758;20.962;2023-07-29T17:28:41;1.63;;;1.23;;
46417;SDS011;69884;64.758;20.962;2023-07-29T17:31:07;1.17;;;1.08;;
46417;SDS011;69884;64.758;20.962;2023-07-29T17:33:32;1.60;;;1.10;;
46417;SDS011;69884;64.758;20.962;2023-07-29T17:35:59;1.88;;;1.20;;
46417;SDS011;69884;64.758;20.962;2023-07-29T17:38:24;1.30;;;1.20;;
46417;SDS011;69884;64.758;20.962;2023-07-29T17:40:49;1.87;;;1.20;;
46417;SDS011;69884;64.758;20.962;2023-07-29T17:43:15;1.47;;;1.23;;
46417;SDS011;69884;64.758;20.962;2023-07-29T17:45:43;2.20;;;1.30;;
46417;SDS011;69884;64.758;20.962;2023-07-29T17:48:11;1.10;;;1.00;;
46417;SDS011;69884;64.758;20.962;2023-07-29T17:50:36;1.93;;;1.30;;
46417;SDS011;69884;64.758;20.962;2023-07-29T17:53:02;1.90;;;1.20;;
46417;SDS011;69884;64.758;20.962;2023-07-29T17:55:27;3.00;;;1.30;;
46417;SDS011;69884;64.758;20.962;2023-07-29T17:57:52;1.40;;;1.30;;
46417;SDS011;69884;64.758;20.962;2023-07-29T18:00:18;2.40;;;1.40;;
46417;SDS011;69884;64.758;20.962;2023-07-29T18:02:43;1.40;;;1.30;;
46417;SDS011;69884;64.758;20.962;2023-07-29T18:05:08;1.50;;;1.40;;
46417;SDS011;69884;64.758;20.962;2023-07-29T18:07:34;2.28;;;1.30;;
46417;SDS011;69884;64.758;20.962;2023-07-29T18:09:59;1.88;;;1.23;;
46417;SDS011;69884;64.758;20.962;2023-07-29T18:12:24;1.25;;;1.05;;
46417;SDS011;69884;64.758;20.962;2023-07-29T18:14:50;1.35;;;1.25;;
46417;SDS011;69884;64.758;20.962;2023-07-29T18:17:15;1.73;;;1.40;;
46417;SDS011;69884;64.758;20.962;2023-07-29T18:19:40;1.70;;;1.60;;
46417;SDS011;69884;64.758;20.962;2023-07-29T18:22:06;1.80;;;1.20;;
46417;SDS011;69884;64.758;20.962;2023-07-29T18:24:31;1.40;;;1.30;;
46417;SDS011;69884;64.758;20.962;2023-07-29T18:26:57;1.67;;;1.37;;
46417;SDS011;69884;64.758;20.962;2023-07-29T18:29:22;2.00;;;1.42;;
46417;SDS011;69884;64.758;20.962;2023-07-29T18:31:47;1.67;;;1.57;;
46417;SDS011;69884;64.758;20.962;2023-07-29T18:34:13;2.20;;;1.60;;
46417;SDS011;69884;64.758;20.962;2023-07-29T18:36:38;1.60;;;1.50;;
46417;SDS011;69884;64.758;20.962;2023-07-29T18:39:03;1.50;;;1.40;;
46417;SDS011;69884;64.758;20.962;2023-07-29T18:41:30;1.42;;;1.30;;
46417;SDS011;69884;64.758;20.962;2023-07-29T18:43:57;2.05;;;1.52;;
46417;SDS011;69884;64.758;20.962;2023-07-29T18:46:23;1.63;;;1.30;;
46417;SDS011;69884;64.758;20.962;2023-07-29T18:48:52;1.50;;;1.40;;
46417;SDS011;69884;64.758;20.962;2023-07-29T18:51:18;1.60;;;1.50;;
46417;SDS011;69884;64.758;20.962;2023-07-29T18:53:43;1.80;;;1.43;;
46417;SDS011;69884;64.758;20.962;2023-07-29T18:56:08;1.40;;;1.30;;
46417;SDS011;69884;64.758;20.962;2023-07-29T18:58:34;1.60;;;1.50;;
46417;SDS011;69884;64.758;20.962;2023-07-29T19:00:59;1.50;;;1.40;;
46417;SDS011;69884;64.758;20.962;2023-07-29T19:03:24;1.83;;;1.30;;
46417;SDS011;69884;64.758;20.962;2023-07-29T19:05:54;1.25;;;1.15;;
46417;SDS011;69884;64.758;20.962;2023-07-29T19:08:19;1.70;;;1.30;;
46417;SDS011;69884;64.758;20.962;2023-07-29T19:10:44;2.60;;;1.23;;
46417;SDS011;69884;64.758;20.962;2023-07-29T19:13:10;1.30;;;1.20;;
46417;SDS011;69884;64.758;20.962;2023-07-29T19:15:35;1.40;;;1.30;;
46417;SDS011;69884;64.758;20.962;2023-07-29T19:18:09;1.20;;;1.10;;
46417;SDS011;69884;64.758;20.962;2023-07-29T19:20:57;2.53;;;1.33;;
46417;SDS011;69884;64.758;20.962;2023-07-29T19:23:23;1.90;;;1.30;;
46417;SDS011;69884;64.758;20.962;2023-07-29T19:25:59;2.20;;;1.35;;
46417;SDS011;69884;64.758;20.962;2023-07-29T19:28:45;1.48;;;1.38;;
46417;SDS011;69884;64.758;20.962;2023-07-29T19:31:21;1.52;;;1.42;;
46417;SDS011;69884;64.758;20.962;2023-07-29T19:34:15;2.25;;;1.48;;
46417;SDS011;69884;64.758;20.962;2023-07-29T19:36:49;2.63;;;1.50;;
46417;SDS011;69884;64.758;20.962;2023-07-29T19:39:20;1.45;;;1.33;;
46417;SDS011;69884;64.758;20.962;2023-07-29T19:41:46;2.10;;;1.65;;
46417;SDS011;69884;64.758;20.962;2023-07-29T19:44:52;1.40;;;1.30;;
46417;SDS011;69884;64.758;20.962;2023-07-29T19:47:34;1.47;;;1.30;;
46417;SDS011;69884;64.758;20.962;2023-07-29T19:55:48;1.85;;;1.45;;
46417;SDS011;69884;64.758;20.962;2023-07-29T19:58:25;1.70;;;1.40;;
46417;SDS011;69884;64.758;20.962;2023-07-29T20:01:11;1.40;;;1.30;;
46417;SDS011;69884;64.758;20.962;2023-07-29T20:03:44;2.50;;;1.50;;
46417;SDS011;69884;64.758;20.962;2023-07-29T20:06:10;1.80;;;1.43;;
46417;SDS011;69884;64.758;20.962;2023-07-29T20:08:47;1.50;;;1.40;;
46417;SDS011;69884;64.758;20.962;2023-07-29T20:11:28;1.65;;;1.55;;
46417;SDS011;69884;64.758;20.962;2023-07-29T20:13:56;1.67;;;1.40;;
46417;SDS011;69884;64.758;20.962;2023-07-29T20:16:27;1.67;;;1.58;;
46417;SDS011;69884;64.758;20.962;2023-07-29T20:18:58;1.75;;;1.65;;
46417;SDS011;69884;64.758;20.962;2023-07-29T20:21:29;2.00;;;1.83;;
46417;SDS011;69884;64.758;20.962;2023-07-29T20:23:54;1.95;;;1.80;;
46417;SDS011;69884;64.758;20.962;2023-07-29T20:26:31;1.83;;;1.70;;
46417;SDS011;69884;64.758;20.962;2023-07-29T20:29:01;2.33;;;1.60;;
46417;SDS011;69884;64.758;20.962;2023-07-29T20:37:51;2.30;;;1.70;;
46417;SDS011;69884;64.758;20.962;2023-07-29T20:40:26;1.70;;;1.60;;
46417;SDS011;69884;64.758;20.962;2023-07-29T20:43:11;2.97;;;1.87;;
46417;SDS011;69884;64.758;20.962;2023-07-29T20:45:45;1.95;;;1.75;;
46417;SDS011;69884;64.758;20.962;2023-07-29T20:48:24;2.45;;;1.77;;
46417;SDS011;69884;64.758;20.962;2023-07-29T20:51:07;3.33;;;1.73;;
46417;SDS011;69884;64.758;20.962;2023-07-29T21:00:06;2.45;;;1.63;;
46417;SDS011;69884;64.758;20.962;2023-07-29T21:08:45;2.40;;;1.75;;
46417;SDS011;69884;64.758;20.962;2023-07-29T21:11:23;1.88;;;1.60;;
46417;SDS011;69884;64.758;20.962;2023-07-29T21:13:58;2.42;;;2.10;;
46417;SDS011;69884;64.758;20.962;2023-07-29T21:16:32;2.13;;;1.80;;
46417;SDS011;69884;64.758;20.962;2023-07-29T21:19:03;2.80;;;1.75;;
46417;SDS011;69884;64.758;20.962;2023-07-29T21:21:41;1.90;;;1.70;;
46417;SDS011;69884;64.758;20.962;2023-07-29T21:30:21;2.30;;;2.00;;
46417;SDS011;69884;64.758;20.962;2023-07-29T21:32:49;2.90;;;2.10;;
46417;SDS011;69884;64.758;20.962;2023-07-29T21:35:14;2.63;;;2.17;;
46417;SDS011;69884;64.758;20.962;2023-07-29T21:37:51;3.30;;;2.10;;
46417;SDS011;69884;64.758;20.962;2023-07-29T21:40:23;2.60;;;2.10;;
46417;SDS011;69884;64.758;20.962;2023-07-29T21:43:00;3.35;;;2.30;;
46417;SDS011;69884;64.758;20.962;2023-07-29T21:45:30;2.33;;;1.95;;
46417;SDS011;69884;64.758;20.962;2023-07-29T21:48:03;2.38;;;2.17;;
46417;SDS011;69884;64.758;20.962;2023-07-29T21:50:38;2.63;;;2.30;;
46417;SDS011;69884;64.758;20.962;2023-07-29T21:53:06;2.30;;;2.10;;
46417;SDS011;69884;64.758;20.962;2023-07-29T21:55:39;3.40;;;2.45;;
46417;SDS011;69884;64.758;20.962;2023-07-29T21:58:10;2.75;;;2.55;;
46417;SDS011;69884;64.758;20.962;2023-07-29T22:01:01;2.70;;;2.03;;
46417;SDS011;69884;64.758;20.962;2023-07-29T22:03:32;3.22;;;1.90;;
46417;SDS011;69884;64.758;20.962;2023-07-29T22:06:03;2.63;;;2.28;;
46417;SDS011;69884;64.758;20.962;2023-07-29T22:08:43;3.53;;;2.50;;